Terminal Aerodrome Forecast
Issued by NWS Charleston, WV

Current Version | Previous Version | Text Only | Print | Product List | Glossary Off
Versions: 1 2 3 4 5 6 7 8 9 10 11 12 13 14 15 16 17 18 19 20 21 22 23

000
FTUS41 KRLX 220900 AAA
TAFPKB
TAF AMD
KPKB 220903Z 2209/2306 23008G18KT P6SM BKN045
     FM221000 23007G18KT P6SM SHRA BKN040
     FM221400 26010G17KT P6SM SHRA BKN025
     FM221600 27012G20KT P6SM BKN025
     FM230100 28009KT P6SM SCT070=

USA.gov is the U.S. government's official web portal to all federal, state and local government web resources and services.